Airfield :







YOU CAN JOIN US ON...

 
LOGIN :

Register | Disclaimer

   EN    FR    IT 

 









Legend :    VFR   Marginal VFR   IFR   Intensive IFR   Very Intensive IFR
Visi :
Ceiling :
>= 8 km
>= 3000ft
5 to 8 km
1000 to 3000 ft
1500m to 5 km
500 to 1000 ft
800 to 1500m
200 to 500 ft
< 800m
< 200 ft
Symbols :   Thunderstorms  Fog  Heavy snow  Heavy precipitations  Wind > 20 kt






- Airport Elevation : 271 ft


KBAF - Barnes Municipal

CURRENT METAR :
  • 180053Z 01006KT 10SM FEW023 OVC032 01/M05 A3021 RMK AO2 SLP238 T00111050

EXPIRED METARs :
  • 180045Z 02005KT 10SM SCT023 OVC032 01/M05 A3022 RMK AO2 T00111050
  • 180031Z 02004KT 10SM BKN023 OVC032 02/M05 A3023 RMK AO2 T00171050
  • 180020Z 02006KT 10SM SCT024 OVC032 02/M05 A3023 RMK AO2 T00171050
  • 172353Z 02006KT 10SM BKN024 OVC034 02/M06 A3023 RMK AO2 SLP244 T00171056 10017 20011 58010
  • 172331Z 02007KT 10SM BKN026 OVC034 01/M06 A3024 RMK AO2 T00111056
  • 172316Z 01006KT 10SM SCT026 OVC034 01/M06 A3024 RMK AO2 T00111061
  • 172253Z 01006KT 10SM BKN026 OVC034 02/M07 A3025 RMK AO2 SLP251 T00171067
  • 172232Z 03006KT 10SM BKN027 OVC035 02/M07 A3025 RMK AO2 T00171067

TAF KBAF
Valid from the 18 at 00:00 until the 19 at 00:00 UTC


172336Z 1800/1824 02006KT P6SM BKN025
FM180700 01009KT P6SM OVC020
FM180900 01009KT P6SM -FZRA OVC020
FM181500 36010G20KT P6SM -RA OVC025
FM182000 36009KT 3SM -RA OVC020



MET'MAP, your aeronautical weather chart ! - Copyright ORBIFLY December 2007 - Disclaimer

ORBIFLY MET'MAP TEAM :

Programming & Development : Alexandra Zaïnal
Concept & Development : Baudouin d'Aumeries
Co-Development & Prog : Marc-Olivier Méhu
Technical & hardware support : Manuel Goepfert

Contact : metmap@orbifly.com




SOURCES & CREDITS :

   NOAA